createdAt,value
2019-02-28T00:00:09.834Z,9.83
2019-02-28T00:05:06.072Z,9.77
2019-02-28T00:10:03.619Z,8.00
2019-02-28T00:14:59.881Z,7.60
2019-02-28T00:19:58.002Z,7.47
2019-02-28T00:24:53.397Z,8.07
2019-02-28T00:29:49.343Z,7.80
2019-02-28T00:39:41.069Z,8.83
2019-02-28T00:44:36.765Z,8.03
2019-02-28T00:49:32.795Z,10.33
2019-02-28T00:54:28.504Z,7.50
2019-02-28T00:59:24.629Z,7.13
2019-02-28T01:04:20.304Z,8.00
2019-02-28T01:09:16.468Z,7.63
2019-02-28T01:14:12.205Z,6.57
2019-02-28T01:24:03.703Z,9.43
2019-02-28T01:29:01.898Z,8.00
2019-02-28T01:33:58.783Z,11.33
2019-02-28T01:38:58.083Z,10.60
2019-02-28T01:43:53.448Z,7.70
2019-02-28T01:48:49.175Z,8.73
2019-02-28T01:58:40.599Z,7.47
2019-02-28T02:03:36.340Z,8.77
2019-02-28T02:08:32.297Z,11.90
2019-02-28T02:13:27.975Z,7.23
2019-02-28T02:18:23.834Z,10.77
2019-02-28T02:23:19.536Z,7.67
2019-02-28T02:33:14.441Z,7.47
2019-02-28T02:38:08.963Z,9.13
2019-02-28T02:43:05.754Z,8.53
2019-02-28T02:48:05.177Z,10.73
2019-02-28T02:53:05.088Z,15.97
2019-02-28T02:57:57.284Z,8.73
2019-02-28T03:02:53.162Z,9.83
2019-02-28T03:07:48.941Z,6.40
2019-02-28T03:12:45.151Z,9.43
2019-02-28T03:17:46.538Z,11.27
2019-02-28T03:22:38.836Z,7.27
2019-02-28T03:27:34.508Z,9.10
2019-02-28T03:32:39.363Z,6.80
2019-02-28T03:37:32.795Z,10.67
2019-02-28T03:47:24.128Z,9.13
2019-02-28T03:52:20.429Z,12.50
2019-02-28T03:57:16.085Z,9.43
2019-02-28T04:02:12.243Z,10.80
2019-02-28T04:07:08.008Z,8.40
2019-02-28T04:12:08.684Z,9.70
2019-02-28T04:17:01.444Z,9.33
2019-02-28T04:21:57.322Z,12.73
2019-02-28T04:26:53.014Z,9.00
2019-02-28T04:31:51.314Z,8.27
2019-02-28T04:36:46.961Z,8.93
2019-02-28T04:41:42.799Z,8.90
2019-02-28T04:46:38.495Z,13.00
2019-02-28T04:51:37.062Z,8.63
2019-02-28T04:56:32.830Z,8.70
2019-02-28T05:01:28.983Z,10.57
2019-02-28T05:06:24.667Z,8.07
2019-02-28T05:11:20.543Z,8.87
2019-02-28T05:16:16.500Z,12.47
2019-02-28T05:21:12.638Z,17.30
2019-02-28T05:26:08.305Z,11.47
2019-02-28T05:31:04.441Z,12.43
2019-02-28T05:36:01.880Z,9.90
2019-02-28T05:40:58.149Z,11.87
2019-02-28T05:45:54.095Z,17.63
2019-02-28T05:50:53.200Z,11.60
2019-02-28T05:55:47.994Z,16.57
2019-02-28T06:00:43.873Z,9.07
2019-02-28T06:05:39.575Z,9.37
2019-02-28T06:10:35.497Z,12.17
2019-02-28T06:15:34.273Z,15.00
2019-02-28T06:20:29.467Z,13.67
2019-02-28T06:25:25.808Z,12.33
2019-02-28T06:30:21.805Z,12.40
2019-02-28T06:35:20.368Z,13.53
2019-02-28T06:40:15.930Z,11.83
2019-02-28T06:45:12.805Z,12.40
2019-02-28T06:50:14.286Z,14.50
2019-02-28T06:55:13.359Z,11.13
2019-02-28T07:00:13.525Z,14.87
2019-02-28T07:05:08.230Z,14.13
2019-02-28T07:10:09.711Z,15.63
2019-02-28T07:15:07.230Z,19.47
2019-02-28T07:20:05.175Z,13.33
2019-02-28T07:25:00.919Z,15.80
2019-02-28T07:29:56.787Z,13.33
2019-02-28T07:34:57.752Z,12.80
2019-02-28T07:39:51.566Z,20.37
2019-02-28T07:44:47.581Z,14.03
2019-02-28T07:49:43.433Z,18.60
2019-02-28T07:54:39.318Z,18.83
2019-02-28T07:59:40.843Z,19.50
2019-02-28T08:04:33.367Z,24.97
2019-02-28T08:09:29.318Z,14.13
2019-02-28T08:14:25.665Z,16.17
2019-02-28T08:19:22.829Z,18.20
2019-02-28T08:29:14.705Z,19.95
2019-02-28T08:34:10.401Z,17.35
2019-02-28T08:39:09.701Z,16.85
2019-02-28T08:44:05.451Z,28.80
2019-02-28T08:49:06.078Z,16.80
2019-02-28T08:53:59.044Z,18.45
2019-02-28T08:58:54.928Z,17.87
2019-02-28T09:03:51.213Z,20.15
2019-02-28T09:08:47.430Z,18.82
2019-02-28T09:13:43.649Z,22.22
2019-02-28T09:18:40.051Z,23.45
2019-02-28T09:23:37.555Z,22.27
2019-02-28T09:28:33.809Z,21.55
2019-02-28T09:33:29.579Z,26.55
2019-02-28T09:38:25.493Z,28.87
2019-02-28T09:43:23.979Z,23.60
2019-02-28T09:48:19.221Z,28.73
2019-02-28T09:53:16.506Z,30.35
2019-02-28T09:58:13.293Z,30.00
2019-02-28T10:03:08.997Z,32.00
2019-02-28T10:08:07.061Z,32.73
2019-02-28T10:13:02.862Z,28.35
2019-02-28T10:18:00.654Z,31.37
2019-02-28T10:22:56.686Z,26.97
2019-02-28T10:27:54.522Z,30.40
2019-02-28T10:32:50.706Z,28.87
2019-02-28T10:37:47.293Z,31.55
2019-02-28T10:42:42.973Z,28.73
2019-02-28T10:47:38.843Z,31.65
2019-02-28T10:52:34.625Z,27.40
2019-02-28T10:57:30.709Z,31.82
2019-02-28T11:02:27.707Z,34.58
2019-02-28T11:07:23.939Z,26.85
2019-02-28T11:12:20.403Z,25.48
2019-02-28T11:17:17.399Z,25.80
2019-02-28T11:22:13.295Z,25.55
2019-02-28T11:27:09.543Z,27.42
2019-02-28T11:32:05.238Z,29.65
2019-02-28T11:37:01.114Z,24.23
2019-02-28T11:41:56.812Z,25.48
2019-02-28T11:46:52.921Z,26.45
2019-02-28T11:51:49.361Z,27.77
2019-02-28T11:56:46.384Z,22.70
2019-02-28T12:01:42.898Z,25.32
2019-02-28T12:06:40.033Z,24.90
2019-02-28T12:11:36.536Z,23.07
2019-02-28T12:16:35.173Z,27.35
2019-02-28T12:21:30.799Z,24.20
2019-02-28T12:26:26.810Z,23.50
2019-02-28T12:31:22.509Z,29.00
2019-02-28T12:36:18.623Z,22.98
2019-02-28T12:41:14.545Z,24.18
2019-02-28T12:46:10.549Z,21.55
2019-02-28T12:51:06.910Z,18.98
2019-02-28T12:56:02.801Z,17.87
2019-02-28T13:01:00.829Z,18.25
2019-02-28T13:10:52.682Z,20.02
2019-02-28T13:15:49.301Z,26.57
2019-02-28T13:20:45.328Z,22.73
2019-02-28T13:25:41.005Z,25.82
2019-02-28T13:30:39.843Z,27.40
2019-02-28T13:35:35.737Z,29.18
2019-02-28T13:40:31.641Z,26.73
2019-02-28T13:45:27.425Z,27.17
2019-02-28T13:50:25.705Z,27.10
2019-02-28T13:55:22.529Z,29.67
2019-02-28T14:00:28.552Z,29.40
2019-02-28T14:05:24.667Z,33.00
2019-02-28T14:10:21.355Z,25.30
2019-02-28T14:15:18.453Z,29.37
2019-02-28T14:20:14.598Z,28.07
2019-02-28T14:25:10.867Z,26.05
2019-02-28T14:30:08.565Z,27.30
2019-02-28T14:35:05.747Z,28.02
2019-02-28T14:40:01.835Z,27.93
2019-02-28T14:44:57.524Z,26.23
2019-02-28T14:49:53.409Z,23.67
2019-02-28T14:54:50.291Z,24.67
2019-02-28T14:59:46.429Z,29.00
2019-02-28T15:04:42.827Z,25.17
2019-02-28T15:09:39.875Z,28.35
2019-02-28T15:14:35.646Z,31.50
2019-02-28T15:19:31.532Z,24.07
2019-02-28T15:24:27.783Z,26.07
2019-02-28T15:29:24.610Z,26.70
2019-02-28T15:34:22.409Z,24.10
2019-02-28T15:39:18.490Z,25.08
2019-02-28T15:44:14.330Z,25.23
2019-02-28T15:49:10.990Z,20.82
2019-02-28T15:54:07.216Z,25.60
2019-02-28T15:59:03.559Z,21.82
2019-02-28T16:03:59.251Z,23.77
2019-02-28T16:08:55.464Z,24.80
2019-02-28T16:13:51.503Z,22.97
2019-02-28T16:18:47.988Z,20.97
2019-02-28T16:23:43.670Z,23.83
2019-02-28T16:28:42.564Z,25.50
2019-02-28T16:33:37.135Z,23.03
2019-02-28T16:38:33.260Z,22.73
2019-02-28T16:43:29.559Z,25.50
2019-02-28T16:48:25.694Z,30.10
2019-02-28T16:53:23.725Z,23.77
2019-02-28T16:58:21.989Z,24.43
2019-02-28T17:03:17.657Z,24.57
2019-02-28T17:08:15.562Z,25.50
2019-02-28T17:13:16.197Z,27.30
2019-02-28T17:18:18.463Z,27.47
2019-02-28T17:23:14.486Z,31.20
2019-02-28T17:28:16.083Z,28.73
2019-02-28T17:33:12.539Z,27.63
2019-02-28T17:38:08.405Z,26.50
2019-02-28T17:43:04.686Z,31.43
2019-02-28T17:48:20.669Z,29.17
2019-02-28T17:53:34.803Z,26.93
2019-02-28T17:58:38.583Z,28.43
2019-02-28T18:03:36.182Z,26.70
2019-02-28T18:08:40.055Z,31.43
2019-02-28T18:13:55.220Z,30.90
2019-02-28T18:19:09.307Z,29.50
2019-02-28T18:24:12.947Z,28.03
2019-02-28T18:29:13.597Z,26.67
2019-02-28T18:34:09.747Z,26.90
2019-02-28T18:39:08.186Z,27.17
2019-02-28T18:44:04.959Z,25.03
2019-02-28T18:49:00.881Z,28.60
2019-02-28T18:53:57.145Z,29.87
2019-02-28T18:58:52.838Z,26.43
2019-02-28T19:03:49.260Z,22.23
2019-02-28T19:08:44.940Z,28.13
2019-02-28T19:13:40.963Z,28.47
2019-02-28T19:18:36.654Z,23.23
2019-02-28T19:23:32.625Z,21.67
2019-02-28T19:28:28.670Z,21.77
2019-02-28T19:33:24.871Z,22.07
2019-02-28T19:38:20.556Z,26.17
2019-02-28T19:43:16.476Z,19.43
2019-02-28T19:48:12.217Z,22.23
2019-02-28T19:53:08.106Z,26.97
2019-02-28T19:58:04.011Z,28.10
2019-02-28T20:02:59.858Z,24.97
2019-02-28T20:07:55.637Z,27.03
2019-02-28T20:12:51.779Z,23.77
2019-02-28T20:17:47.562Z,28.40
2019-02-28T20:22:43.599Z,23.63
2019-02-28T20:27:39.370Z,23.37
2019-02-28T20:32:35.140Z,27.10
2019-02-28T20:37:30.822Z,22.20
2019-02-28T20:42:26.860Z,21.90
2019-02-28T20:47:22.595Z,18.50
2019-02-28T20:52:18.311Z,18.43
2019-02-28T20:57:14.031Z,19.77
2019-02-28T21:02:11.108Z,15.73
2019-02-28T21:07:06.783Z,17.77
2019-02-28T21:12:02.533Z,18.03
2019-02-28T21:16:59.461Z,20.83
2019-02-28T21:21:55.347Z,17.37
2019-02-28T21:26:51.039Z,17.03
2019-02-28T21:31:46.921Z,24.43
2019-02-28T21:36:42.608Z,21.50
2019-02-28T21:41:38.475Z,17.63
2019-02-28T21:46:34.463Z,20.43
2019-02-28T21:51:30.469Z,14.93
2019-02-28T21:56:26.399Z,11.50
2019-02-28T22:01:22.475Z,15.23
2019-02-28T22:06:18.143Z,14.40
2019-02-28T22:11:14.226Z,13.07
2019-02-28T22:16:09.921Z,13.80
2019-02-28T22:21:05.763Z,11.80
2019-02-28T22:26:01.429Z,13.10
2019-02-28T22:30:59.206Z,11.73
2019-02-28T22:35:59.759Z,13.77
2019-02-28T22:40:55.609Z,15.83
2019-02-28T22:45:51.310Z,17.73
2019-02-28T22:55:43.646Z,14.27
2019-02-28T23:00:46.537Z,14.23
2019-02-28T23:05:42.233Z,14.20
2019-02-28T23:10:38.263Z,14.33
2019-02-28T23:15:34.045Z,15.10
2019-02-28T23:20:30.115Z,17.33
2019-02-28T23:25:25.795Z,11.30
2019-02-28T23:30:23.806Z,12.03
2019-02-28T23:35:20.881Z,17.40
2019-02-28T23:40:16.747Z,14.40
2019-02-28T23:45:12.448Z,12.63
2019-02-28T23:50:08.771Z,12.57
2019-02-28T23:55:05.741Z,15.60
